sensor_id;sensor_type;location;lat;lon;timestamp;pressure;altitude;pressure_sealevel;temperature;humidity
76794;BME280;65745;50.278;18.192;2023-03-17T00:00:09;100463.49;;;-1.36;62.36
76794;BME280;65745;50.278;18.192;2023-03-17T00:03:02;100464.49;;;-1.34;62.72
76794;BME280;65745;50.278;18.192;2023-03-17T00:05:36;100467.80;;;-1.31;62.95
76794;BME280;65745;50.278;18.192;2023-03-17T00:08:14;100470.88;;;-1.37;65.93
76794;BME280;65745;50.278;18.192;2023-03-17T00:10:49;100470.80;;;-1.44;65.58
76794;BME280;65745;50.278;18.192;2023-03-17T00:13:21;100473.35;;;-1.44;63.68
76794;BME280;65745;50.278;18.192;2023-03-17T00:15:57;100473.61;;;-1.41;64.19
76794;BME280;65745;50.278;18.192;2023-03-17T00:18:31;100468.24;;;-1.43;64.16
76794;BME280;65745;50.278;18.192;2023-03-17T00:21:08;100465.15;;;-1.41;63.19
76794;BME280;65745;50.278;18.192;2023-03-17T00:23:41;100456.73;;;-1.39;62.36
76794;BME280;65745;50.278;18.192;2023-03-17T00:26:17;100455.33;;;-1.39;63.91
76794;BME280;65745;50.278;18.192;2023-03-17T00:28:50;100456.88;;;-1.41;64.31
76794;BME280;65745;50.278;18.192;2023-03-17T00:31:26;100454.13;;;-1.42;64.38
76794;BME280;65745;50.278;18.192;2023-03-17T00:33:59;100450.62;;;-1.48;65.87
76794;BME280;65745;50.278;18.192;2023-03-17T00:36:32;100456.08;;;-1.45;63.93
76794;BME280;65745;50.278;18.192;2023-03-17T00:39:08;100456.05;;;-1.41;62.99
76794;BME280;65745;50.278;18.192;2023-03-17T00:41:42;100452.98;;;-1.41;62.13
76794;BME280;65745;50.278;18.192;2023-03-17T00:44:14;100451.48;;;-1.39;62.51
76794;BME280;65745;50.278;18.192;2023-03-17T00:46:47;100451.51;;;-1.34;64.01
76794;BME280;65745;50.278;18.192;2023-03-17T00:49:22;100446.71;;;-1.39;65.99
76794;BME280;65745;50.278;18.192;2023-03-17T00:51:56;100447.80;;;-1.36;65.53
76794;BME280;65745;50.278;18.192;2023-03-17T00:54:28;100448.27;;;-1.30;64.55
76794;BME280;65745;50.278;18.192;2023-03-17T00:57:02;100440.34;;;-1.27;65.60
76794;BME280;65745;50.278;18.192;2023-03-17T00:59:39;100437.84;;;-1.34;64.13
76794;BME280;65745;50.278;18.192;2023-03-17T01:02:14;100443.36;;;-1.32;63.95
76794;BME280;65745;50.278;18.192;2023-03-17T01:04:46;100441.48;;;-1.31;63.62
76794;BME280;65745;50.278;18.192;2023-03-17T01:07:33;100438.48;;;-1.32;63.41
76794;BME280;65745;50.278;18.192;2023-03-17T01:10:12;100439.09;;;-1.26;63.01
76794;BME280;65745;50.278;18.192;2023-03-17T01:12:46;100444.05;;;-1.25;63.35
76794;BME280;65745;50.278;18.192;2023-03-17T01:15:20;100447.04;;;-1.28;63.30
76794;BME280;65745;50.278;18.192;2023-03-17T01:17:53;100441.52;;;-1.39;62.92
76794;BME280;65745;50.278;18.192;2023-03-17T01:20:29;100442.46;;;-1.55;65.43
76794;BME280;65745;50.278;18.192;2023-03-17T01:23:02;100440.79;;;-1.59;64.08
76794;BME280;65745;50.278;18.192;2023-03-17T01:25:35;100436.66;;;-1.58;63.30
76794;BME280;65745;50.278;18.192;2023-03-17T01:28:08;100434.35;;;-1.66;65.41
76794;BME280;65745;50.278;18.192;2023-03-17T01:30:42;100431.58;;;-1.78;65.13
76794;BME280;65745;50.278;18.192;2023-03-17T01:33:14;100429.95;;;-1.88;66.47
76794;BME280;65745;50.278;18.192;2023-03-17T01:35:47;100433.59;;;-1.93;65.65
76794;BME280;65745;50.278;18.192;2023-03-17T01:38:19;100431.20;;;-1.94;66.47
76794;BME280;65745;50.278;18.192;2023-03-17T01:40:52;100428.77;;;-2.03;65.55
76794;BME280;65745;50.278;18.192;2023-03-17T01:43:26;100419.80;;;-2.06;64.19
76794;BME280;65745;50.278;18.192;2023-03-17T01:46:26;100411.80;;;-2.09;66.26
76794;BME280;65745;50.278;18.192;2023-03-17T01:49:04;100393.77;;;-2.17;65.51
76794;BME280;65745;50.278;18.192;2023-03-17T01:51:40;100384.51;;;-2.30;67.89
76794;BME280;65745;50.278;18.192;2023-03-17T01:54:19;100378.84;;;-2.29;65.28
76794;BME280;65745;50.278;18.192;2023-03-17T01:56:54;100373.58;;;-2.32;66.60
76794;BME280;65745;50.278;18.192;2023-03-17T01:59:32;100368.41;;;-2.29;66.49
76794;BME280;65745;50.278;18.192;2023-03-17T02:02:07;100373.09;;;-2.27;67.40
76794;BME280;65745;50.278;18.192;2023-03-17T02:04:40;100381.06;;;-2.20;67.03
76794;BME280;65745;50.278;18.192;2023-03-17T02:07:13;100376.85;;;-2.11;65.74
76794;BME280;65745;50.278;18.192;2023-03-17T02:09:45;100371.00;;;-2.06;65.29
76794;BME280;65745;50.278;18.192;2023-03-17T02:12:17;100366.70;;;-2.14;66.41
76794;BME280;65745;50.278;18.192;2023-03-17T02:14:52;100362.36;;;-2.16;66.56
76794;BME280;65745;50.278;18.192;2023-03-17T02:17:26;100358.27;;;-2.21;66.17
76794;BME280;65745;50.278;18.192;2023-03-17T02:22:46;100346.34;;;-2.43;67.87
76794;BME280;65745;50.278;18.192;2023-03-17T02:25:20;100345.62;;;-2.50;67.43
76794;BME280;65745;50.278;18.192;2023-03-17T02:27:58;100341.32;;;-2.49;66.57
76794;BME280;65745;50.278;18.192;2023-03-17T02:30:32;100348.85;;;-2.44;66.04
76794;BME280;65745;50.278;18.192;2023-03-17T02:33:06;100349.92;;;-2.51;67.54
76794;BME280;65745;50.278;18.192;2023-03-17T02:35:39;100361.52;;;-2.54;66.04
76794;BME280;65745;50.278;18.192;2023-03-17T02:38:12;100361.50;;;-2.59;65.11
76794;BME280;65745;50.278;18.192;2023-03-17T02:40:43;100364.71;;;-2.61;65.34
76794;BME280;65745;50.278;18.192;2023-03-17T02:43:15;100368.25;;;-2.61;65.48
76794;BME280;65745;50.278;18.192;2023-03-17T02:45:47;100368.38;;;-2.68;65.61
76794;BME280;65745;50.278;18.192;2023-03-17T02:48:20;100372.53;;;-2.77;66.41
76794;BME280;65745;50.278;18.192;2023-03-17T02:50:52;100373.48;;;-2.69;65.68
76794;BME280;65745;50.278;18.192;2023-03-17T02:53:24;100363.52;;;-2.71;67.92
76794;BME280;65745;50.278;18.192;2023-03-17T02:55:56;100353.20;;;-2.68;66.87
76794;BME280;65745;50.278;18.192;2023-03-17T02:58:28;100346.84;;;-2.59;67.25
76794;BME280;65745;50.278;18.192;2023-03-17T03:01:01;100347.38;;;-2.58;67.66
76794;BME280;65745;50.278;18.192;2023-03-17T03:03:33;100349.29;;;-2.64;68.30
76794;BME280;65745;50.278;18.192;2023-03-17T03:06:05;100353.28;;;-2.62;66.93
76794;BME280;65745;50.278;18.192;2023-03-17T03:08:37;100353.15;;;-2.66;67.33
76794;BME280;65745;50.278;18.192;2023-03-17T03:11:10;100364.27;;;-2.64;66.16
76794;BME280;65745;50.278;18.192;2023-03-17T03:13:42;100372.79;;;-2.63;66.94
76794;BME280;65745;50.278;18.192;2023-03-17T03:16:14;100376.16;;;-2.67;67.64
76794;BME280;65745;50.278;18.192;2023-03-17T03:18:47;100385.23;;;-2.66;67.72
76794;BME280;65745;50.278;18.192;2023-03-17T03:21:19;100384.30;;;-2.67;68.37
76794;BME280;65745;50.278;18.192;2023-03-17T03:23:51;100383.72;;;-2.68;69.09
76794;BME280;65745;50.278;18.192;2023-03-17T03:26:23;100381.48;;;-2.62;67.04
76794;BME280;65745;50.278;18.192;2023-03-17T03:28:55;100378.09;;;-2.56;66.14
76794;BME280;65745;50.278;18.192;2023-03-17T03:31:29;100373.97;;;-2.52;66.73
76794;BME280;65745;50.278;18.192;2023-03-17T03:34:01;100378.48;;;-2.51;66.15
76794;BME280;65745;50.278;18.192;2023-03-17T03:36:33;100370.83;;;-2.49;66.56
76794;BME280;65745;50.278;18.192;2023-03-17T03:39:06;100364.23;;;-2.47;66.89
76794;BME280;65745;50.278;18.192;2023-03-17T03:41:40;100360.63;;;-2.48;66.81
76794;BME280;65745;50.278;18.192;2023-03-17T03:44:12;100362.33;;;-2.48;68.28
76794;BME280;65745;50.278;18.192;2023-03-17T03:46:44;100359.02;;;-2.47;67.35
76794;BME280;65745;50.278;18.192;2023-03-17T03:49:16;100350.35;;;-2.46;66.86
76794;BME280;65745;50.278;18.192;2023-03-17T03:51:48;100340.07;;;-2.44;66.18
76794;BME280;65745;50.278;18.192;2023-03-17T03:54:21;100348.34;;;-2.39;66.39
76794;BME280;65745;50.278;18.192;2023-03-17T03:56:53;100350.46;;;-2.38;68.09
76794;BME280;65745;50.278;18.192;2023-03-17T03:59:25;100355.12;;;-2.33;67.58
76794;BME280;65745;50.278;18.192;2023-03-17T04:01:57;100344.93;;;-2.31;68.83
76794;BME280;65745;50.278;18.192;2023-03-17T04:04:30;100343.56;;;-2.23;67.70
76794;BME280;65745;50.278;18.192;2023-03-17T04:07:02;100350.66;;;-2.19;67.19
76794;BME280;65745;50.278;18.192;2023-03-17T04:09:35;100348.48;;;-2.21;68.34
76794;BME280;65745;50.278;18.192;2023-03-17T04:12:10;100348.27;;;-2.30;68.64
76794;BME280;65745;50.278;18.192;2023-03-17T04:14:42;100341.48;;;-2.34;68.02
76794;BME280;65745;50.278;18.192;2023-03-17T04:17:15;100336.53;;;-2.44;68.94
76794;BME280;65745;50.278;18.192;2023-03-17T04:19:48;100336.79;;;-2.41;67.54
76794;BME280;65745;50.278;18.192;2023-03-17T04:22:21;100334.70;;;-2.37;67.48
76794;BME280;65745;50.278;18.192;2023-03-17T04:24:54;100341.01;;;-2.38;67.97
76794;BME280;65745;50.278;18.192;2023-03-17T04:27:26;100342.30;;;-2.35;67.52
76794;BME280;65745;50.278;18.192;2023-03-17T04:29:58;100342.05;;;-2.30;67.31
76794;BME280;65745;50.278;18.192;2023-03-17T04:32:31;100341.45;;;-2.33;67.83
76794;BME280;65745;50.278;18.192;2023-03-17T04:35:04;100344.91;;;-2.36;68.38
76794;BME280;65745;50.278;18.192;2023-03-17T04:37:38;100350.15;;;-2.42;68.18
76794;BME280;65745;50.278;18.192;2023-03-17T04:40:12;100354.96;;;-2.43;68.41
76794;BME280;65745;50.278;18.192;2023-03-17T04:42:46;100355.82;;;-2.43;68.50
76794;BME280;65745;50.278;18.192;2023-03-17T04:45:18;100358.95;;;-2.46;69.84
76794;BME280;65745;50.278;18.192;2023-03-17T04:47:50;100354.92;;;-2.41;68.91
76794;BME280;65745;50.278;18.192;2023-03-17T04:50:22;100351.23;;;-2.31;69.14
76794;BME280;65745;50.278;18.192;2023-03-17T04:52:54;100354.59;;;-2.31;69.10
76794;BME280;65745;50.278;18.192;2023-03-17T04:55:27;100361.39;;;-2.32;68.86
76794;BME280;65745;50.278;18.192;2023-03-17T04:57:59;100359.77;;;-2.31;68.47
76794;BME280;65745;50.278;18.192;2023-03-17T05:00:31;100366.06;;;-2.28;67.95
76794;BME280;65745;50.278;18.192;2023-03-17T05:03:08;100365.04;;;-2.31;68.23
76794;BME280;65745;50.278;18.192;2023-03-17T05:05:56;100364.30;;;-2.32;68.06
76794;BME280;65745;50.278;18.192;2023-03-17T05:08:28;100363.98;;;-2.36;67.75
76794;BME280;65745;50.278;18.192;2023-03-17T05:11:00;100362.19;;;-2.37;67.63
76794;BME280;65745;50.278;18.192;2023-03-17T05:13:32;100361.64;;;-2.42;68.17
76794;BME280;65745;50.278;18.192;2023-03-17T05:16:06;100353.79;;;-2.45;68.51
76794;BME280;65745;50.278;18.192;2023-03-17T05:18:39;100348.05;;;-2.43;68.48
76794;BME280;65745;50.278;18.192;2023-03-17T05:21:13;100350.52;;;-2.40;68.10
76794;BME280;65745;50.278;18.192;2023-03-17T05:23:45;100348.02;;;-2.37;68.13
76794;BME280;65745;50.278;18.192;2023-03-17T05:26:17;100345.46;;;-2.33;68.22
76794;BME280;65745;50.278;18.192;2023-03-17T05:28:49;100349.83;;;-2.25;67.73
76794;BME280;65745;50.278;18.192;2023-03-17T05:31:21;100346.26;;;-2.19;67.81
76794;BME280;65745;50.278;18.192;2023-03-17T05:33:53;100351.38;;;-2.20;68.77
76794;BME280;65745;50.278;18.192;2023-03-17T05:36:26;100345.99;;;-2.18;69.25
76794;BME280;65745;50.278;18.192;2023-03-17T05:38:58;100340.38;;;-2.11;69.29
76794;BME280;65745;50.278;18.192;2023-03-17T05:41:30;100340.97;;;-2.06;69.54
76794;BME280;65745;50.278;18.192;2023-03-17T05:44:03;100344.33;;;-1.97;69.53
76794;BME280;65745;50.278;18.192;2023-03-17T05:46:36;100336.38;;;-1.84;69.18
76794;BME280;65745;50.278;18.192;2023-03-17T05:49:08;100336.77;;;-1.70;68.71
76794;BME280;65745;50.278;18.192;2023-03-17T05:51:40;100340.52;;;-1.65;69.06
76794;BME280;65745;50.278;18.192;2023-03-17T05:54:12;100347.02;;;-1.62;69.53
76794;BME280;65745;50.278;18.192;2023-03-17T05:56:44;100347.29;;;-1.47;68.24
76794;BME280;65745;50.278;18.192;2023-03-17T05:59:17;100342.83;;;-1.39;68.21
76794;BME280;65745;50.278;18.192;2023-03-17T06:01:49;100347.91;;;-1.37;68.60
76794;BME280;65745;50.278;18.192;2023-03-17T06:04:21;100343.95;;;-1.38;69.24
76794;BME280;65745;50.278;18.192;2023-03-17T06:06:53;100341.47;;;-1.35;68.59
76794;BME280;65745;50.278;18.192;2023-03-17T06:09:26;100340.92;;;-1.26;67.96
76794;BME280;65745;50.278;18.192;2023-03-17T06:11:58;100349.67;;;-1.17;67.89
76794;BME280;65745;50.278;18.192;2023-03-17T06:14:30;100350.55;;;-1.12;67.93
76794;BME280;65745;50.278;18.192;2023-03-17T06:17:02;100347.14;;;-1.08;67.95
76794;BME280;65745;50.278;18.192;2023-03-17T06:19:34;100354.22;;;-0.97;68.59
76794;BME280;65745;50.278;18.192;2023-03-17T06:22:07;100359.77;;;-0.80;68.36
76794;BME280;65745;50.278;18.192;2023-03-17T06:24:39;100356.39;;;-0.69;68.71
76794;BME280;65745;50.278;18.192;2023-03-17T06:27:11;100353.94;;;-0.49;68.57
76794;BME280;65745;50.278;18.192;2023-03-17T06:29:44;100357.84;;;-0.27;68.54
76794;BME280;65745;50.278;18.192;2023-03-17T06:32:17;100357.34;;;-0.05;67.99
76794;BME280;65745;50.278;18.192;2023-03-17T06:34:50;100355.23;;;0.16;67.62
76794;BME280;65745;50.278;18.192;2023-03-17T06:37:23;100357.55;;;0.32;67.01
76794;BME280;65745;50.278;18.192;2023-03-17T06:39:56;100364.30;;;0.47;66.79
76794;BME280;65745;50.278;18.192;2023-03-17T06:42:30;100362.70;;;0.61;66.58
76794;BME280;65745;50.278;18.192;2023-03-17T06:45:02;100361.13;;;0.81;66.13
76794;BME280;65745;50.278;18.192;2023-03-17T06:47:34;100365.70;;;0.99;65.78
76794;BME280;65745;50.278;18.192;2023-03-17T06:50:10;100367.02;;;1.14;65.42
76794;BME280;65745;50.278;18.192;2023-03-17T06:52:42;100369.46;;;1.31;65.39
76794;BME280;65745;50.278;18.192;2023-03-17T06:55:16;100376.27;;;1.53;65.17
76794;BME280;65745;50.278;18.192;2023-03-17T06:57:49;100368.50;;;1.77;64.73
76794;BME280;65745;50.278;18.192;2023-03-17T07:00:22;100372.80;;;1.97;64.57
76794;BME280;65745;50.278;18.192;2023-03-17T07:02:53;100376.63;;;2.09;64.09
76794;BME280;65745;50.278;18.192;2023-03-17T07:05:26;100375.61;;;2.27;63.87
76794;BME280;65745;50.278;18.192;2023-03-17T07:07:58;100382.06;;;2.41;63.89
76794;BME280;65745;50.278;18.192;2023-03-17T07:10:30;100379.70;;;2.55;63.15
76794;BME280;65745;50.278;18.192;2023-03-17T07:13:02;100382.77;;;2.61;62.70
76794;BME280;65745;50.278;18.192;2023-03-17T07:15:38;100384.98;;;2.75;62.62
76794;BME280;65745;50.278;18.192;2023-03-17T07:18:10;100383.64;;;2.87;62.21
76794;BME280;65745;50.278;18.192;2023-03-17T07:20:43;100379.94;;;3.00;61.99
76794;BME280;65745;50.278;18.192;2023-03-17T07:23:19;100377.55;;;3.06;61.70
76794;BME280;65745;50.278;18.192;2023-03-17T07:25:52;100371.57;;;3.23;61.69
76794;BME280;65745;50.278;18.192;2023-03-17T07:28:25;100367.97;;;3.47;61.33
76794;BME280;65745;50.278;18.192;2023-03-17T07:30:57;100363.98;;;3.61;60.78
76794;BME280;65745;50.278;18.192;2023-03-17T07:33:32;100363.58;;;3.78;60.85
76794;BME280;65745;50.278;18.192;2023-03-17T07:36:05;100363.61;;;3.95;60.18
76794;BME280;65745;50.278;18.192;2023-03-17T07:38:38;100360.09;;;4.15;59.40
76794;BME280;65745;50.278;18.192;2023-03-17T07:41:11;100361.77;;;4.28;58.23
76794;BME280;65745;50.278;18.192;2023-03-17T07:43:43;100364.06;;;4.36;58.02
76794;BME280;65745;50.278;18.192;2023-03-17T07:46:15;100364.64;;;4.50;57.05
76794;BME280;65745;50.278;18.192;2023-03-17T07:48:47;100364.11;;;4.66;56.97
76794;BME280;65745;50.278;18.192;2023-03-17T07:51:21;100358.33;;;4.77;56.13
76794;BME280;65745;50.278;18.192;2023-03-17T07:53:57;100352.43;;;4.78;55.35
76794;BME280;65745;50.278;18.192;2023-03-17T07:56:33;100346.89;;;4.91;55.38
76794;BME280;65745;50.278;18.192;2023-03-17T07:59:06;100342.01;;;5.09;55.40
76794;BME280;65745;50.278;18.192;2023-03-17T08:01:38;100341.62;;;5.29;55.18
76794;BME280;65745;50.278;18.192;2023-03-17T08:04:11;100339.69;;;5.46;54.35
76794;BME280;65745;50.278;18.192;2023-03-17T08:06:44;100334.50;;;5.67;52.96
76794;BME280;65745;50.278;18.192;2023-03-17T08:09:17;100337.23;;;5.81;52.25
76794;BME280;65745;50.278;18.192;2023-03-17T08:11:49;100327.90;;;5.97;52.56
76794;BME280;65745;50.278;18.192;2023-03-17T08:14:22;100326.27;;;6.18;51.03
76794;BME280;65745;50.278;18.192;2023-03-17T08:16:54;100328.63;;;6.32;50.52
76794;BME280;65745;50.278;18.192;2023-03-17T08:19:27;100332.05;;;6.40;49.89
76794;BME280;65745;50.278;18.192;2023-03-17T08:21:59;100329.67;;;6.41;48.47
76794;BME280;65745;50.278;18.192;2023-03-17T08:24:31;100332.47;;;6.50;48.65
76794;BME280;65745;50.278;18.192;2023-03-17T08:27:04;100329.02;;;6.54;48.19
76794;BME280;65745;50.278;18.192;2023-03-17T08:29:37;100325.73;;;6.57;47.79
76794;BME280;65745;50.278;18.192;2023-03-17T08:32:11;100325.74;;;6.69;47.99
76794;BME280;65745;50.278;18.192;2023-03-17T08:34:43;100324.56;;;6.78;47.42
76794;BME280;65745;50.278;18.192;2023-03-17T08:37:15;100326.19;;;6.84;46.24
76794;BME280;65745;50.278;18.192;2023-03-17T08:39:48;100321.14;;;6.82;45.63
76794;BME280;65745;50.278;18.192;2023-03-17T08:42:20;100323.79;;;6.92;45.75
76794;BME280;65745;50.278;18.192;2023-03-17T08:44:52;100319.95;;;7.07;46.04
76794;BME280;65745;50.278;18.192;2023-03-17T08:47:26;100316.31;;;7.19;45.71
76794;BME280;65745;50.278;18.192;2023-03-17T08:49:59;100314.90;;;7.21;45.16
76794;BME280;65745;50.278;18.192;2023-03-17T08:52:32;100317.98;;;7.22;44.87
76794;BME280;65745;50.278;18.192;2023-03-17T08:55:04;100323.13;;;7.21;44.36
76794;BME280;65745;50.278;18.192;2023-03-17T08:57:37;100319.05;;;7.31;43.96
76794;BME280;65745;50.278;18.192;2023-03-17T09:00:13;100316.98;;;7.44;43.71
76794;BME280;65745;50.278;18.192;2023-03-17T09:02:46;100316.03;;;7.59;43.54
76794;BME280;65745;50.278;18.192;2023-03-17T09:05:18;100308.82;;;7.72;42.92
76794;BME280;65745;50.278;18.192;2023-03-17T09:07:50;100302.15;;;7.96;43.64
76794;BME280;65745;50.278;18.192;2023-03-17T09:10:23;100301.56;;;8.22;42.87
76794;BME280;65745;50.278;18.192;2023-03-17T09:12:56;100295.84;;;8.34;41.80
76794;BME280;65745;50.278;18.192;2023-03-17T09:15:33;100292.96;;;8.40;41.92
76794;BME280;65745;50.278;18.192;2023-03-17T09:18:06;100290.56;;;8.50;41.78
76794;BME280;65745;50.278;18.192;2023-03-17T09:20:40;100284.82;;;8.63;40.89
76794;BME280;65745;50.278;18.192;2023-03-17T09:23:13;100282.86;;;8.66;40.77
76794;BME280;65745;50.278;18.192;2023-03-17T09:25:45;100283.20;;;8.71;40.89
76794;BME280;65745;50.278;18.192;2023-03-17T09:28:18;100277.36;;;8.71;40.42
76794;BME280;65745;50.278;18.192;2023-03-17T09:30:50;100276.73;;;8.88;40.36
76794;BME280;65745;50.278;18.192;2023-03-17T09:33:23;100276.65;;;8.96;40.31
76794;BME280;65745;50.278;18.192;2023-03-17T09:35:56;100275.27;;;9.07;40.10
76794;BME280;65745;50.278;18.192;2023-03-17T09:38:29;100279.52;;;9.11;39.76
76794;BME280;65745;50.278;18.192;2023-03-17T09:41:10;100274.43;;;9.19;39.95
76794;BME280;65745;50.278;18.192;2023-03-17T09:43:55;100269.81;;;9.36;39.79
76794;BME280;65745;50.278;18.192;2023-03-17T09:46:43;100263.27;;;9.35;39.14
76794;BME280;65745;50.278;18.192;2023-03-17T09:49:21;100264.87;;;9.31;39.43
76794;BME280;65745;50.278;18.192;2023-03-17T09:51:57;100261.23;;;9.30;38.47
76794;BME280;65745;50.278;18.192;2023-03-17T09:54:32;100259.44;;;9.22;38.49
76794;BME280;65745;50.278;18.192;2023-03-17T09:57:11;100264.06;;;9.45;38.86
76794;BME280;65745;50.278;18.192;2023-03-17T09:59:45;100266.67;;;9.57;39.21
76794;BME280;65745;50.278;18.192;2023-03-17T10:02:23;100263.02;;;9.72;38.86
76794;BME280;65745;50.278;18.192;2023-03-17T10:04:58;100259.83;;;9.70;38.44
76794;BME280;65745;50.278;18.192;2023-03-17T10:07:40;100265.20;;;9.77;38.55
76794;BME280;65745;50.278;18.192;2023-03-17T10:10:18;100261.66;;;9.79;38.33
76794;BME280;65745;50.278;18.192;2023-03-17T10:12:58;100265.23;;;9.84;38.61
76794;BME280;65745;50.278;18.192;2023-03-17T10:15:36;100269.89;;;9.73;38.27
76794;BME280;65745;50.278;18.192;2023-03-17T10:18:14;100260.35;;;9.76;38.69
76794;BME280;65745;50.278;18.192;2023-03-17T10:20:52;100262.79;;;9.95;38.19
76794;BME280;65745;50.278;18.192;2023-03-17T10:23:28;100257.05;;;9.93;38.13
76794;BME280;65745;50.278;18.192;2023-03-17T10:26:06;100250.11;;;9.97;38.10
76794;BME280;65745;50.278;18.192;2023-03-17T10:28:39;100240.39;;;10.06;38.00
76794;BME280;65745;50.278;18.192;2023-03-17T10:31:17;100234.02;;;10.24;37.84
76794;BME280;65745;50.278;18.192;2023-03-17T10:33:50;100218.98;;;10.35;37.38
76794;BME280;65745;50.278;18.192;2023-03-17T10:36:35;100201.06;;;10.42;37.28
76794;BME280;65745;50.278;18.192;2023-03-17T10:39:09;100192.79;;;10.61;37.27
76794;BME280;65745;50.278;18.192;2023-03-17T10:41:51;100197.35;;;10.72;36.84
76794;BME280;65745;50.278;18.192;2023-03-17T10:44:38;100207.20;;;10.59;36.12
76794;BME280;65745;50.278;18.192;2023-03-17T10:47:24;100215.27;;;10.58;36.41
76794;BME280;65745;50.278;18.192;2023-03-17T10:49:57;100210.96;;;10.65;36.76
76794;BME280;65745;50.278;18.192;2023-03-17T10:52:34;100211.45;;;10.78;36.65
76794;BME280;65745;50.278;18.192;2023-03-17T10:55:11;100216.36;;;10.88;36.25
76794;BME280;65745;50.278;18.192;2023-03-17T10:57:52;100211.78;;;11.07;35.91
76794;BME280;65745;50.278;18.192;2023-03-17T11:00:30;100208.93;;;11.33;35.60
76794;BME280;65745;50.278;18.192;2023-03-17T11:03:14;100208.39;;;11.48;35.61
76794;BME280;65745;50.278;18.192;2023-03-17T11:05:59;100204.88;;;11.71;35.01
76794;BME280;65745;50.278;18.192;2023-03-17T11:08:35;100201.99;;;11.81;34.22
76794;BME280;65745;50.278;18.192;2023-03-17T11:11:22;100204.38;;;11.87;33.54
76794;BME280;65745;50.278;18.192;2023-03-17T11:14:02;100202.29;;;11.96;33.62
76794;BME280;65745;50.278;18.192;2023-03-17T11:16:36;100204.30;;;12.01;33.08
76794;BME280;65745;50.278;18.192;2023-03-17T11:19:13;100197.77;;;12.12;32.99
76794;BME280;65745;50.278;18.192;2023-03-17T11:21:52;100190.08;;;12.26;32.71
76794;BME280;65745;50.278;18.192;2023-03-17T11:24:30;100190.96;;;12.37;32.49
76794;BME280;65745;50.278;18.192;2023-03-17T11:27:08;100198.23;;;12.47;32.68
76794;BME280;65745;50.278;18.192;2023-03-17T11:29:54;100194.11;;;12.40;32.03
76794;BME280;65745;50.278;18.192;2023-03-17T11:32:37;100185.30;;;12.39;32.53
76794;BME280;65745;50.278;18.192;2023-03-17T11:35:38;100182.21;;;12.30;31.93
76794;BME280;65745;50.278;18.192;2023-03-17T11:38:21;100182.95;;;12.33;31.51
76794;BME280;65745;50.278;18.192;2023-03-17T11:41:18;100181.45;;;12.37;32.05
76794;BME280;65745;50.278;18.192;2023-03-17T11:44:01;100176.88;;;12.73;32.04
76794;BME280;65745;50.278;18.192;2023-03-17T11:46:39;100175.65;;;13.18;31.51
76794;BME280;65745;50.278;18.192;2023-03-17T11:49:19;100172.48;;;13.53;30.78
76794;BME280;65745;50.278;18.192;2023-03-17T11:51:58;100176.63;;;13.52;30.71
76794;BME280;65745;50.278;18.192;2023-03-17T11:54:39;100177.19;;;13.41;30.65
76794;BME280;65745;50.278;18.192;2023-03-17T11:57:20;100172.73;;;13.58;30.96
76794;BME280;65745;50.278;18.192;2023-03-17T11:59:57;100163.08;;;14.46;29.73
76794;BME280;65745;50.278;18.192;2023-03-17T12:02:44;100153.28;;;15.36;28.36
76794;BME280;65745;50.278;18.192;2023-03-17T12:05:21;100149.16;;;16.09;27.28
76794;BME280;65745;50.278;18.192;2023-03-17T12:07:58;100153.36;;;17.04;26.73
76794;BME280;65745;50.278;18.192;2023-03-17T12:10:34;100149.75;;;16.86;25.91
76794;BME280;65745;50.278;18.192;2023-03-17T12:13:13;100136.32;;;16.10;26.31
76794;BME280;65745;50.278;18.192;2023-03-17T12:15:51;100132.66;;;15.46;27.18
76794;BME280;65745;50.278;18.192;2023-03-17T12:18:28;100136.92;;;14.71;27.84
76794;BME280;65745;50.278;18.192;2023-03-17T12:21:08;100126.27;;;14.19;28.69
76794;BME280;65745;50.278;18.192;2023-03-17T12:23:53;100130.73;;;14.15;28.84
76794;BME280;65745;50.278;18.192;2023-03-17T12:26:33;100127.45;;;13.98;28.71
76794;BME280;65745;50.278;18.192;2023-03-17T12:29:12;100118.84;;;14.03;29.16
76794;BME280;65745;50.278;18.192;2023-03-17T12:31:47;100125.52;;;13.94;28.37
76794;BME280;65745;50.278;18.192;2023-03-17T12:34:27;100115.98;;;13.93;28.42
76794;BME280;65745;50.278;18.192;2023-03-17T12:37:03;100115.31;;;14.14;29.01
76794;BME280;65745;50.278;18.192;2023-03-17T12:39:36;100115.26;;;14.72;27.98
76794;BME280;65745;50.278;18.192;2023-03-17T12:42:23;100115.88;;;15.61;27.02
76794;BME280;65745;50.278;18.192;2023-03-17T12:45:17;100110.06;;;16.75;25.56
76794;BME280;65745;50.278;18.192;2023-03-17T12:48:09;100100.84;;;17.74;24.88
76794;BME280;65745;50.278;18.192;2023-03-17T12:50:58;100102.40;;;18.47;24.10
76794;BME280;65745;50.278;18.192;2023-03-17T12:53:38;100096.58;;;18.56;24.00
76794;BME280;65745;50.278;18.192;2023-03-17T12:56:17;100094.80;;;18.40;23.47
76794;BME280;65745;50.278;18.192;2023-03-17T12:58:52;100088.84;;;18.23;23.56
76794;BME280;65745;50.278;18.192;2023-03-17T13:01:31;100086.52;;;18.06;23.42
76794;BME280;65745;50.278;18.192;2023-03-17T13:04:14;100078.60;;;17.93;24.18
76794;BME280;65745;50.278;18.192;2023-03-17T13:06:56;100075.13;;;18.37;23.80
76794;BME280;65745;50.278;18.192;2023-03-17T13:09:48;100069.27;;;18.68;23.71
76794;BME280;65745;50.278;18.192;2023-03-17T13:15:51;100063.58;;;19.62;23.28
76794;BME280;65745;50.278;18.192;2023-03-17T13:21:18;100065.61;;;20.74;21.20
76794;BME280;65745;50.278;18.192;2023-03-17T13:24:17;100057.59;;;20.99;20.88
76794;BME280;65745;50.278;18.192;2023-03-17T13:26:58;100054.23;;;20.92;20.78
76794;BME280;65745;50.278;18.192;2023-03-17T13:29:44;100047.88;;;21.37;20.64
76794;BME280;65745;50.278;18.192;2023-03-17T13:32:37;100040.44;;;21.33;19.67